Acme, Washington
Current Conditions -  °F | °C
As of 10:53 PM on Thursday 27 Nov 2014 (Local Time) from KBLI Reporting Station
Overcast Overcast  
Wind Chill: 54°   Ceiling: 1400
Heat Index: 54°   Visibility: 10mi
Dew Point: 49°   Wind: 13mph
Humidity: 83%   Direction: 170°S
Pressure: 29.59"   Gusts: 23mph
Location:  48.72°N, 122.21°W
Report Text: KBLI 280653Z AUTO 17011G20KT 10SM OVC014 12/09 A2959 RMK AO2 RAE44 SLP025 P0002 T01220094
Loading
Personal Weather Stations






























Interactive Weather Map New forecast layout! Learn more

10-Day Weather Forecast

Advertisements
Track Severe Weather on mobile